createdAt,value
2022-11-28T00:01:52.522Z,3.97
2022-11-28T00:04:31.350Z,4.10
2022-11-28T00:07:00.240Z,4.20
2022-11-28T00:09:32.204Z,4.10
2022-11-28T00:12:04.167Z,4.07
2022-11-28T00:14:34.629Z,4.80
2022-11-28T00:17:03.690Z,4.97
2022-11-28T00:19:32.788Z,4.40
2022-11-28T00:22:01.885Z,3.90
2022-11-28T00:24:30.775Z,4.67
2022-11-28T00:26:59.761Z,4.87
2022-11-28T00:29:29.175Z,4.10
2022-11-28T00:31:59.429Z,3.70
2022-11-28T00:34:28.475Z,3.50
2022-11-28T00:36:57.897Z,3.70
2022-11-28T00:39:27.075Z,4.10
2022-11-28T00:41:56.194Z,3.97
2022-11-28T00:44:25.903Z,3.87
2022-11-28T00:46:55.103Z,5.27
2022-11-28T00:49:25.736Z,4.30
2022-11-28T00:51:55.344Z,4.63
2022-11-28T00:54:24.421Z,5.17
2022-11-28T00:56:53.334Z,4.00
2022-11-28T00:59:22.649Z,4.57
2022-11-28T01:01:57.117Z,5.00
2022-11-28T01:04:30.454Z,4.70
2022-11-28T01:06:59.654Z,4.13
2022-11-28T01:09:29.762Z,4.60
2022-11-28T01:11:59.486Z,4.80
2022-11-28T01:14:31.869Z,4.40
2022-11-28T01:17:02.287Z,4.97
2022-11-28T01:19:32.918Z,4.00
2022-11-28T01:22:01.711Z,3.80
2022-11-28T01:24:30.906Z,4.43
2022-11-28T01:27:00.103Z,4.97
2022-11-28T01:29:31.902Z,4.97
2022-11-28T01:32:01.018Z,3.63
2022-11-28T01:34:30.260Z,4.30
2022-11-28T01:37:01.201Z,4.80
2022-11-28T01:39:30.598Z,3.90
2022-11-28T01:41:59.804Z,4.60
2022-11-28T01:45:03.981Z,4.50
2022-11-28T01:47:33.529Z,4.40
2022-11-28T01:50:02.615Z,4.60
2022-11-28T01:52:35.717Z,4.73
2022-11-28T01:55:05.940Z,5.13
2022-11-28T01:57:37.390Z,5.43
2022-11-28T02:00:09.359Z,5.00
2022-11-28T02:02:52.180Z,4.30
2022-11-28T02:05:24.137Z,4.60
2022-11-28T02:07:54.777Z,4.60
2022-11-28T02:10:26.204Z,5.20
2022-11-28T02:13:04.739Z,4.17
2022-11-28T02:15:44.895Z,4.90
2022-11-28T02:18:23.720Z,4.60
2022-11-28T02:21:04.497Z,4.97
2022-11-28T02:23:48.025Z,4.10
2022-11-28T02:26:43.951Z,4.37
2022-11-28T02:30:03.614Z,5.30
2022-11-28T02:32:50.345Z,3.57
2022-11-28T02:35:23.180Z,4.63
2022-11-28T02:38:01.125Z,4.47
2022-11-28T02:40:35.349Z,4.03
2022-11-28T02:43:08.237Z,4.43
2022-11-28T02:45:41.632Z,4.83
2022-11-28T02:48:14.931Z,4.83
2022-11-28T02:50:48.734Z,3.60
2022-11-28T02:53:21.097Z,4.03
2022-11-28T02:55:50.818Z,4.20
2022-11-28T02:58:19.891Z,3.83
2022-11-28T03:00:49.508Z,4.10
2022-11-28T03:03:31.625Z,4.10
2022-11-28T03:06:03.692Z,5.03
2022-11-28T03:08:46.611Z,3.73
2022-11-28T03:11:20.144Z,4.83
2022-11-28T03:13:54.926Z,4.27
2022-11-28T03:16:29.175Z,4.63
2022-11-28T03:19:05.016Z,4.77
2022-11-28T03:21:40.051Z,3.93
2022-11-28T03:24:15.507Z,4.53
2022-11-28T03:26:53.912Z,4.10
2022-11-28T03:29:33.046Z,4.60
2022-11-28T03:32:04.498Z,4.17
2022-11-28T03:34:39.589Z,4.07
2022-11-28T03:37:14.259Z,3.70
2022-11-28T03:39:47.760Z,3.70
2022-11-28T03:42:19.335Z,4.37
2022-11-28T03:44:51.687Z,3.77
2022-11-28T03:47:20.784Z,3.43
2022-11-28T03:49:53.260Z,3.03
2022-11-28T03:52:26.963Z,3.40
2022-11-28T03:54:58.550Z,3.30
2022-11-28T03:57:33.247Z,3.67
2022-11-28T04:00:05.824Z,3.70
2022-11-28T04:02:50.407Z,3.27
2022-11-28T04:05:25.419Z,2.70
2022-11-28T04:07:58.248Z,2.13
2022-11-28T04:10:31.508Z,3.60
2022-11-28T04:13:11.749Z,3.00
2022-11-28T04:15:45.770Z,3.00
2022-11-28T04:18:22.286Z,3.13
2022-11-28T04:20:59.387Z,3.27
2022-11-28T04:23:30.774Z,3.53
2022-11-28T04:26:03.659Z,3.43
2022-11-28T04:28:34.598Z,3.90
2022-11-28T04:31:06.648Z,2.93
2022-11-28T04:33:38.013Z,3.70
2022-11-28T04:36:10.593Z,3.57
2022-11-28T04:38:41.226Z,2.80
2022-11-28T04:41:14.315Z,3.43
2022-11-28T04:43:50.170Z,3.10
2022-11-28T04:46:31.723Z,3.30
2022-11-28T04:49:00.869Z,3.30
2022-11-28T04:51:37.556Z,3.47
2022-11-28T04:54:10.746Z,2.83
2022-11-28T04:56:42.666Z,3.30
2022-11-28T04:59:13.016Z,3.37
2022-11-28T05:01:43.899Z,3.70
2022-11-28T05:04:14.280Z,4.10
2022-11-28T05:06:44.707Z,3.03
2022-11-28T05:09:14.627Z,3.53
2022-11-28T05:11:43.499Z,3.20
2022-11-28T05:14:12.795Z,3.50
2022-11-28T05:16:42.391Z,3.20
2022-11-28T05:19:11.426Z,4.03
2022-11-28T05:21:40.905Z,2.37
2022-11-28T05:24:11.927Z,3.10
2022-11-28T05:26:41.043Z,2.80
2022-11-28T05:29:10.466Z,3.30
2022-11-28T05:31:45.448Z,3.10
2022-11-28T05:34:14.601Z,3.50
2022-11-28T05:36:43.388Z,2.80
2022-11-28T05:39:13.823Z,3.47
2022-11-28T05:41:42.606Z,3.50
2022-11-28T05:44:24.078Z,3.20
2022-11-28T05:47:06.221Z,3.33
2022-11-28T05:49:35.620Z,3.33
2022-11-28T05:52:05.569Z,2.87
2022-11-28T05:54:36.658Z,3.10
2022-11-28T05:57:07.753Z,3.30
2022-11-28T05:59:36.938Z,3.80
2022-11-28T06:02:05.876Z,3.20
2022-11-28T06:04:35.481Z,3.07
2022-11-28T06:07:04.806Z,2.63
2022-11-28T06:09:34.014Z,3.30
2022-11-28T06:12:05.194Z,3.10
2022-11-28T06:14:34.245Z,3.93
2022-11-28T06:17:03.752Z,3.60
2022-11-28T06:19:32.583Z,3.53
2022-11-28T06:22:01.417Z,3.37
2022-11-28T06:24:30.916Z,2.63
2022-11-28T06:27:01.262Z,3.30
2022-11-28T06:29:31.893Z,3.43
2022-11-28T06:32:01.069Z,3.23
2022-11-28T06:34:30.603Z,3.37
2022-11-28T06:37:00.006Z,3.70
2022-11-28T06:39:28.847Z,4.13
2022-11-28T06:41:57.786Z,3.60
2022-11-28T06:44:26.780Z,3.70
2022-11-28T06:46:57.313Z,2.80
2022-11-28T06:49:26.413Z,3.43
2022-11-28T06:51:55.402Z,3.27
2022-11-28T06:54:24.713Z,3.60
2022-11-28T06:56:53.800Z,3.70
2022-11-28T06:59:38.907Z,3.10
2022-11-28T07:02:09.548Z,3.80
2022-11-28T07:04:38.804Z,4.10
2022-11-28T07:07:07.696Z,3.37
2022-11-28T07:09:36.845Z,4.07
2022-11-28T07:12:07.325Z,3.87
2022-11-28T07:14:36.524Z,3.87
2022-11-28T07:17:09.895Z,3.83
2022-11-28T07:19:38.811Z,3.87
2022-11-28T07:22:07.782Z,3.90
2022-11-28T07:24:37.824Z,3.43
2022-11-28T07:27:07.025Z,3.53
2022-11-28T07:29:37.224Z,3.80
2022-11-28T07:32:06.639Z,3.83
2022-11-28T07:34:37.078Z,3.80
2022-11-28T07:37:06.356Z,4.50
2022-11-28T07:39:36.055Z,3.30
2022-11-28T07:42:05.496Z,3.30
2022-11-28T07:44:34.794Z,3.40
2022-11-28T07:47:03.935Z,3.80
2022-11-28T07:49:37.445Z,3.77
2022-11-28T07:52:06.487Z,4.07
2022-11-28T07:54:35.686Z,4.70
2022-11-28T07:57:12.107Z,4.03
2022-11-28T07:59:42.984Z,3.57
2022-11-28T08:02:12.635Z,4.60
2022-11-28T08:04:49.424Z,4.33
2022-11-28T08:07:29.539Z,4.90
2022-11-28T08:10:01.583Z,3.30
2022-11-28T08:12:31.065Z,4.47
2022-11-28T08:15:00.613Z,3.80
2022-11-28T08:17:30.325Z,4.27
2022-11-28T08:20:01.060Z,4.40
2022-11-28T08:22:30.334Z,3.40
2022-11-28T08:24:59.457Z,3.57
2022-11-28T08:27:28.451Z,4.10
2022-11-28T08:29:57.753Z,3.60
2022-11-28T08:32:27.158Z,3.90
2022-11-28T08:34:55.846Z,3.67
2022-11-28T08:37:26.681Z,5.30
2022-11-28T08:39:55.731Z,4.10
2022-11-28T08:42:27.334Z,3.70
2022-11-28T08:44:56.123Z,4.20
2022-11-28T08:47:25.098Z,3.03
2022-11-28T08:49:54.009Z,4.17
2022-11-28T08:52:27.814Z,3.50
2022-11-28T08:54:56.808Z,4.93
2022-11-28T08:57:25.784Z,4.67
2022-11-28T08:59:55.088Z,3.87
2022-11-28T09:02:26.143Z,4.10
2022-11-28T09:04:55.347Z,3.73
2022-11-28T09:07:24.638Z,3.60
2022-11-28T09:09:55.387Z,3.47
2022-11-28T09:12:24.375Z,3.93
2022-11-28T09:14:53.167Z,4.27
2022-11-28T09:17:22.000Z,4.10
2022-11-28T09:19:50.854Z,4.50
2022-11-28T09:22:19.741Z,3.80
2022-11-28T09:24:48.511Z,3.40
2022-11-28T09:27:19.262Z,4.07
2022-11-28T09:29:48.153Z,3.83
2022-11-28T09:32:17.018Z,3.87
2022-11-28T09:34:45.956Z,3.90
2022-11-28T09:37:15.013Z,4.23
2022-11-28T09:40:11.557Z,3.93
2022-11-28T09:42:37.701Z,3.67
2022-11-28T09:45:08.543Z,3.07
2022-11-28T09:47:38.044Z,3.30
2022-11-28T09:50:10.985Z,3.40
2022-11-28T09:52:42.510Z,3.03
2022-11-28T09:55:19.445Z,3.43
2022-11-28T09:57:50.563Z,3.50
2022-11-28T10:00:22.707Z,3.67
2022-11-28T10:03:13.838Z,2.87
2022-11-28T10:05:45.961Z,3.53
2022-11-28T10:08:23.745Z,3.50
2022-11-28T10:11:00.023Z,3.80
2022-11-28T10:14:06.060Z,2.80
2022-11-28T10:16:57.130Z,4.43
2022-11-28T10:19:53.272Z,4.20
2022-11-28T10:22:25.183Z,3.00
2022-11-28T10:24:56.131Z,2.97
2022-11-28T10:27:36.290Z,2.87
2022-11-28T10:30:09.676Z,2.83
2022-11-28T10:32:42.660Z,3.60
2022-11-28T10:35:18.536Z,3.23
2022-11-28T10:37:47.169Z,2.77
2022-11-28T10:40:19.723Z,3.07
2022-11-28T10:42:54.845Z,2.40
2022-11-28T10:45:28.565Z,2.40
2022-11-28T10:48:39.206Z,2.93
2022-11-28T10:51:15.059Z,3.37
2022-11-28T10:53:52.293Z,3.80
2022-11-28T10:56:28.739Z,3.20
2022-11-28T10:59:01.367Z,3.77
2022-11-28T11:01:37.687Z,2.93
2022-11-28T11:04:07.323Z,2.87
2022-11-28T11:06:47.819Z,2.90
2022-11-28T11:09:27.774Z,2.70
2022-11-28T11:12:01.096Z,2.23
2022-11-28T11:14:36.324Z,2.97
2022-11-28T11:17:06.848Z,2.60
2022-11-28T11:19:36.706Z,2.90
2022-11-28T11:22:08.375Z,3.30
2022-11-28T11:24:37.420Z,3.27
2022-11-28T11:27:08.711Z,2.77
2022-11-28T11:29:38.709Z,3.03
2022-11-28T11:32:21.969Z,3.70
2022-11-28T11:34:51.609Z,3.00
2022-11-28T11:37:25.533Z,3.60
2022-11-28T11:39:54.425Z,2.77
2022-11-28T11:42:24.335Z,2.63
2022-11-28T11:44:53.641Z,2.50
2022-11-28T11:47:41.260Z,2.70
2022-11-28T11:50:17.878Z,3.10
2022-11-28T11:53:01.931Z,2.70
2022-11-28T11:55:32.728Z,2.83
2022-11-28T11:58:05.657Z,2.30
2022-11-28T12:00:38.943Z,3.23
2022-11-28T12:03:17.532Z,3.43
2022-11-28T12:06:13.346Z,2.80
2022-11-28T12:08:43.222Z,2.87
2022-11-28T12:11:16.170Z,3.50
2022-11-28T12:13:44.853Z,3.77
2022-11-28T12:16:35.489Z,2.87
2022-11-28T12:19:15.163Z,3.00
2022-11-28T12:21:54.627Z,2.43
2022-11-28T12:24:28.007Z,2.93
2022-11-28T12:27:07.568Z,2.20
2022-11-28T12:29:45.188Z,3.57
2022-11-28T12:32:29.759Z,2.70
2022-11-28T12:35:09.264Z,2.90
2022-11-28T12:38:09.940Z,2.93
2022-11-28T12:40:37.951Z,3.23
2022-11-28T12:43:19.671Z,2.50
2022-11-28T12:45:57.543Z,2.87
2022-11-28T12:48:41.101Z,3.50
2022-11-28T12:51:19.730Z,2.57
2022-11-28T12:54:07.151Z,2.90
2022-11-28T12:56:43.311Z,2.77
2022-11-28T12:59:21.633Z,2.30
2022-11-28T13:01:56.891Z,2.53
2022-11-28T13:04:55.142Z,3.03
2022-11-28T13:07:32.807Z,2.47
2022-11-28T13:10:06.135Z,2.90
2022-11-28T13:12:45.787Z,3.50
2022-11-28T13:15:18.621Z,2.63
2022-11-28T13:18:16.404Z,3.47
2022-11-28T13:20:48.492Z,2.23
2022-11-28T13:23:23.029Z,2.53
2022-11-28T13:25:54.994Z,2.77
2022-11-28T13:28:28.390Z,2.70
2022-11-28T13:31:00.527Z,3.13
2022-11-28T13:33:39.333Z,3.27
2022-11-28T13:38:34.555Z,2.87
2022-11-28T13:39:13.373Z,2.83
2022-11-28T13:44:38.006Z,2.90
2022-11-28T13:47:19.789Z,3.30
2022-11-28T13:49:48.204Z,3.23
2022-11-28T13:52:43.386Z,2.93
2022-11-28T13:55:41.799Z,3.40
2022-11-28T13:58:19.330Z,3.20
2022-11-28T14:01:05.896Z,3.13
2022-11-28T14:03:37.144Z,2.63
2022-11-28T14:06:07.780Z,2.53
2022-11-28T14:08:41.781Z,2.70
2022-11-28T14:11:28.586Z,2.93
2022-11-28T14:14:08.858Z,3.17
2022-11-28T14:16:51.775Z,3.10
2022-11-28T14:19:38.459Z,2.43
2022-11-28T14:22:19.650Z,2.80
2022-11-28T14:24:56.038Z,2.70
2022-11-28T14:27:28.530Z,2.50
2022-11-28T14:29:58.401Z,2.50
2022-11-28T14:32:33.593Z,2.77
2022-11-28T14:35:03.380Z,3.33
2022-11-28T14:37:57.921Z,2.00
2022-11-28T14:40:59.755Z,2.93
2022-11-28T14:43:32.627Z,3.43
2022-11-28T14:46:29.075Z,2.83
2022-11-28T14:49:23.451Z,3.40
2022-11-28T14:52:38.484Z,3.10
2022-11-28T14:55:22.065Z,3.20
2022-11-28T14:58:13.788Z,2.90
2022-11-28T15:00:50.953Z,3.87
2022-11-28T15:03:29.548Z,3.77
2022-11-28T15:06:11.798Z,2.90
2022-11-28T15:08:53.785Z,3.30
2022-11-28T15:11:35.176Z,2.87
2022-11-28T15:14:17.428Z,2.87
2022-11-28T15:16:50.708Z,3.20
2022-11-28T15:19:27.237Z,3.00
2022-11-28T15:21:56.332Z,2.93
2022-11-28T15:24:28.107Z,3.10
2022-11-28T15:26:58.947Z,3.17
2022-11-28T15:29:29.596Z,3.10
2022-11-28T15:32:02.123Z,2.70
2022-11-28T15:34:33.337Z,2.80
2022-11-28T15:37:04.214Z,2.83
2022-11-28T15:39:36.383Z,3.10
2022-11-28T15:42:06.964Z,3.03
2022-11-28T15:44:37.828Z,3.27
2022-11-28T15:47:18.035Z,3.53
2022-11-28T15:49:46.994Z,3.33
2022-11-28T15:52:18.587Z,3.07
2022-11-28T15:54:51.538Z,3.27
2022-11-28T15:57:21.102Z,3.60
2022-11-28T15:59:49.825Z,3.07
2022-11-28T16:02:28.205Z,4.10
2022-11-28T16:05:02.148Z,4.60
2022-11-28T16:07:31.015Z,3.80
2022-11-28T16:10:01.261Z,4.10
2022-11-28T16:12:30.423Z,3.80
2022-11-28T16:15:02.053Z,3.33
2022-11-28T16:17:34.438Z,5.30
2022-11-28T16:20:05.013Z,4.07
2022-11-28T16:22:38.158Z,3.97
2022-11-28T16:25:16.102Z,3.70
2022-11-28T16:27:48.834Z,5.20
2022-11-28T16:30:29.962Z,4.30
2022-11-28T16:33:00.658Z,5.30
2022-11-28T16:35:31.187Z,5.30
2022-11-28T16:38:07.454Z,4.80
2022-11-28T16:40:36.024Z,4.50
2022-11-28T16:43:06.291Z,4.20
2022-11-28T16:45:36.844Z,4.20
2022-11-28T16:48:12.778Z,4.17
2022-11-28T16:50:43.509Z,4.20
2022-11-28T16:53:43.203Z,4.23
2022-11-28T16:56:25.247Z,3.63
2022-11-28T16:58:55.418Z,4.20
2022-11-28T17:01:25.533Z,4.00
2022-11-28T17:03:59.286Z,4.00
2022-11-28T17:06:34.320Z,4.27
2022-11-28T17:09:03.374Z,3.70
2022-11-28T17:11:35.247Z,4.47
2022-11-28T17:14:29.403Z,4.50
2022-11-28T17:16:59.821Z,3.67
2022-11-28T17:19:30.076Z,3.90
2022-11-28T17:22:00.620Z,3.83
2022-11-28T17:24:35.126Z,3.10
2022-11-28T17:27:07.932Z,3.30
2022-11-28T17:29:37.008Z,4.20
2022-11-28T17:32:06.106Z,3.67
2022-11-28T17:34:37.049Z,4.10
2022-11-28T17:37:15.457Z,4.37
2022-11-28T17:40:04.939Z,4.30
2022-11-28T17:42:34.029Z,3.80
2022-11-28T17:45:03.126Z,3.63
2022-11-28T17:47:31.919Z,4.40
2022-11-28T17:50:02.448Z,4.20
2022-11-28T17:52:32.673Z,4.70
2022-11-28T17:55:07.066Z,5.13
2022-11-28T17:57:36.698Z,4.60
2022-11-28T18:00:06.892Z,3.87
2022-11-28T18:03:11.521Z,3.63
2022-11-28T18:05:43.309Z,3.80
2022-11-28T18:08:12.300Z,3.07
2022-11-28T18:10:42.322Z,3.80
2022-11-28T18:13:16.809Z,2.70
2022-11-28T18:15:48.130Z,4.33
2022-11-28T18:18:16.936Z,4.00
2022-11-28T18:20:47.195Z,3.13
2022-11-28T18:23:16.919Z,3.43
2022-11-28T18:25:45.957Z,3.60
2022-11-28T18:28:18.816Z,3.77
2022-11-28T18:30:49.942Z,3.97
2022-11-28T18:33:19.103Z,3.67
2022-11-28T18:35:49.956Z,3.70
2022-11-28T18:38:21.888Z,2.80
2022-11-28T18:40:50.630Z,2.90
2022-11-28T18:43:22.474Z,3.30
2022-11-28T18:45:51.704Z,2.90
2022-11-28T18:48:20.441Z,3.17
2022-11-28T18:50:51.010Z,3.30
2022-11-28T18:53:20.107Z,3.43
2022-11-28T18:55:49.716Z,3.30
2022-11-28T18:58:18.448Z,3.60
2022-11-28T19:00:47.503Z,3.13
2022-11-28T19:03:16.496Z,2.83
2022-11-28T19:05:45.591Z,3.30
2022-11-28T19:08:15.930Z,2.93
2022-11-28T19:10:46.145Z,3.67
2022-11-28T19:13:15.087Z,4.27
2022-11-28T19:15:45.356Z,4.10
2022-11-28T19:18:14.813Z,3.33
2022-11-28T19:20:44.298Z,3.30
2022-11-28T19:23:13.363Z,3.10
2022-11-28T19:25:44.510Z,3.00
2022-11-28T19:28:13.589Z,3.40
2022-11-28T19:30:43.037Z,2.70
2022-11-28T19:33:11.901Z,3.33
2022-11-28T19:35:41.540Z,2.90
2022-11-28T19:38:10.658Z,3.20
2022-11-28T19:40:39.732Z,3.03
2022-11-28T19:43:10.230Z,3.27
2022-11-28T19:45:40.749Z,3.27
2022-11-28T19:48:11.834Z,3.70
2022-11-28T19:50:49.706Z,3.33
2022-11-28T19:53:19.091Z,3.90
2022-11-28T19:55:49.335Z,3.60
2022-11-28T19:58:19.568Z,3.30
2022-11-28T20:00:48.346Z,3.57
2022-11-28T20:03:17.574Z,3.63
2022-11-28T20:05:46.438Z,2.87
2022-11-28T20:08:15.124Z,2.93
2022-11-28T20:10:44.735Z,3.77
2022-11-28T20:13:13.829Z,3.80
2022-11-28T20:15:44.672Z,3.10
2022-11-28T20:18:14.844Z,3.47
2022-11-28T20:20:44.045Z,3.13
2022-11-28T20:23:12.883Z,3.53
2022-11-28T20:25:41.464Z,3.07
2022-11-28T20:28:11.482Z,2.50
2022-11-28T20:30:40.427Z,2.90
2022-11-28T20:33:12.544Z,2.63
2022-11-28T20:35:41.535Z,3.03
2022-11-28T20:38:10.431Z,3.10
2022-11-28T20:40:39.731Z,2.53
2022-11-28T20:43:08.732Z,2.93
2022-11-28T20:45:41.239Z,2.87
2022-11-28T20:48:12.694Z,3.10
2022-11-28T20:50:44.511Z,3.17
2022-11-28T20:53:13.695Z,2.97
2022-11-28T20:55:42.704Z,2.97
2022-11-28T20:58:11.373Z,2.90
2022-11-28T21:00:40.591Z,2.80
2022-11-28T21:03:09.893Z,4.00
2022-11-28T21:05:43.187Z,3.20
2022-11-28T21:08:12.508Z,3.13
2022-11-28T21:10:41.573Z,4.23
2022-11-28T21:13:10.687Z,3.37
2022-11-28T21:15:41.521Z,3.13
2022-11-28T21:18:10.926Z,3.30
2022-11-28T21:20:43.286Z,2.57
2022-11-28T21:23:13.008Z,2.93
2022-11-28T21:25:43.334Z,2.73
2022-11-28T21:28:13.098Z,2.20
2022-11-28T21:30:43.061Z,2.53
2022-11-28T21:33:12.673Z,2.23
2022-11-28T21:35:43.200Z,2.73
2022-11-28T21:38:12.707Z,2.37
2022-11-28T21:40:41.799Z,2.33
2022-11-28T21:43:10.678Z,3.13
2022-11-28T21:45:40.234Z,2.70
2022-11-28T21:48:09.810Z,2.03
2022-11-28T21:50:38.688Z,2.43
2022-11-28T21:53:09.030Z,2.57
2022-11-28T21:55:39.562Z,2.40
2022-11-28T21:58:08.450Z,2.40
2022-11-28T22:00:53.049Z,2.10
2022-11-28T22:03:25.421Z,2.87
2022-11-28T22:06:01.245Z,2.77
2022-11-28T22:08:40.857Z,3.00
2022-11-28T22:11:11.489Z,2.50
2022-11-28T22:13:42.526Z,2.33
2022-11-28T22:16:12.439Z,2.50
2022-11-28T22:18:41.518Z,2.80
2022-11-28T22:21:43.284Z,3.03
2022-11-28T22:24:02.033Z,2.63
2022-11-28T22:26:31.184Z,3.23
2022-11-28T22:29:01.152Z,2.43
2022-11-28T22:31:30.182Z,3.37
2022-11-28T22:33:59.165Z,2.97
2022-11-28T22:36:28.390Z,2.73
2022-11-28T22:38:58.817Z,2.70
2022-11-28T22:41:29.970Z,2.50
2022-11-28T22:44:04.079Z,2.17
2022-11-28T22:46:33.971Z,3.07
2022-11-28T22:49:07.086Z,2.80
2022-11-28T22:51:37.306Z,2.90
2022-11-28T22:54:06.399Z,2.80
2022-11-28T22:56:37.562Z,2.40
2022-11-28T22:59:06.429Z,2.60
2022-11-28T23:01:35.911Z,2.60
2022-11-28T23:04:09.701Z,2.50
2022-11-28T23:06:38.520Z,2.67
2022-11-28T23:09:10.711Z,3.20
2022-11-28T23:11:41.851Z,2.10
2022-11-28T23:14:14.175Z,3.13
2022-11-28T23:16:45.827Z,2.23
2022-11-28T23:19:17.318Z,2.50
2022-11-28T23:21:48.101Z,2.87
2022-11-28T23:24:18.851Z,2.10
2022-11-28T23:26:49.924Z,2.60
2022-11-28T23:29:20.796Z,2.60
2022-11-28T23:31:51.089Z,2.10
2022-11-28T23:34:20.179Z,2.90
2022-11-28T23:36:49.715Z,2.43
2022-11-28T23:39:20.042Z,2.10
2022-11-28T23:41:51.247Z,2.87
2022-11-28T23:44:23.559Z,2.47
2022-11-28T23:46:52.747Z,3.17
2022-11-28T23:49:21.855Z,2.90
2022-11-28T23:51:50.746Z,2.70
2022-11-28T23:54:19.742Z,2.13
2022-11-28T23:56:50.168Z,2.77
2022-11-28T23:59:19.215Z,3.10
